sensor_id;sensor_type;location;lat;lon;timestamp;pressure;altitude;pressure_sealevel;temperature;humidity
11936;BME280;6027;48.576;9.180;2024-03-02T00:00:14;95729.19;;;6.11;100.00
11936;BME280;6027;48.576;9.180;2024-03-02T00:02:43;95728.09;;;6.05;100.00
11936;BME280;6027;48.576;9.180;2024-03-02T00:05:17;95741.22;;;6.05;100.00
11936;BME280;6027;48.576;9.180;2024-03-02T00:07:53;95729.72;;;6.06;100.00
11936;BME280;6027;48.576;9.180;2024-03-02T00:10:26;95719.13;;;6.00;100.00
11936;BME280;6027;48.576;9.180;2024-03-02T00:12:56;95732.06;;;6.01;100.00
11936;BME280;6027;48.576;9.180;2024-03-02T00:15:40;95741.75;;;6.01;100.00
11936;BME280;6027;48.576;9.180;2024-03-02T00:21:11;95725.28;;;5.92;100.00
11936;BME280;6027;48.576;9.180;2024-03-02T00:23:38;95723.84;;;5.89;100.00
11936;BME280;6027;48.576;9.180;2024-03-02T00:26:05;95742.22;;;5.89;100.00
11936;BME280;6027;48.576;9.180;2024-03-02T00:28:33;95741.19;;;5.76;100.00
11936;BME280;6027;48.576;9.180;2024-03-02T00:31:08;95744.00;;;5.74;100.00
11936;BME280;6027;48.576;9.180;2024-03-02T00:36:04;95752.78;;;5.67;100.00
11936;BME280;6027;48.576;9.180;2024-03-02T00:38:31;95757.13;;;5.74;100.00
11936;BME280;6027;48.576;9.180;2024-03-02T00:41:00;95757.38;;;5.79;100.00
11936;BME280;6027;48.576;9.180;2024-03-02T00:46:00;95748.25;;;5.75;100.00
11936;BME280;6027;48.576;9.180;2024-03-02T00:48:26;95752.69;;;5.75;100.00
11936;BME280;6027;48.576;9.180;2024-03-02T00:50:54;95749.34;;;5.81;100.00
11936;BME280;6027;48.576;9.180;2024-03-02T00:53:23;95746.25;;;5.77;100.00
11936;BME280;6027;48.576;9.180;2024-03-02T00:55:52;95748.69;;;5.79;100.00
11936;BME280;6027;48.576;9.180;2024-03-02T00:58:18;95750.91;;;5.75;100.00
11936;BME280;6027;48.576;9.180;2024-03-02T01:00:43;95740.38;;;5.75;100.00
11936;BME280;6027;48.576;9.180;2024-03-02T01:03:09;95735.56;;;5.79;100.00
11936;BME280;6027;48.576;9.180;2024-03-02T01:05:36;95737.03;;;5.81;100.00
11936;BME280;6027;48.576;9.180;2024-03-02T01:08:01;95739.41;;;5.76;100.00
11936;BME280;6027;48.576;9.180;2024-03-02T01:10:27;95727.31;;;5.67;100.00
11936;BME280;6027;48.576;9.180;2024-03-02T01:12:52;95732.41;;;5.69;100.00
11936;BME280;6027;48.576;9.180;2024-03-02T01:15:18;95732.13;;;5.64;100.00
11936;BME280;6027;48.576;9.180;2024-03-02T01:17:43;95736.09;;;5.60;100.00
11936;BME280;6027;48.576;9.180;2024-03-02T01:20:09;95723.41;;;5.48;100.00
11936;BME280;6027;48.576;9.180;2024-03-02T01:22:35;95727.78;;;5.56;100.00
11936;BME280;6027;48.576;9.180;2024-03-02T01:25:01;95734.28;;;5.60;100.00
11936;BME280;6027;48.576;9.180;2024-03-02T01:27:27;95732.28;;;5.62;100.00
11936;BME280;6027;48.576;9.180;2024-03-02T01:29:53;95728.22;;;5.60;100.00
11936;BME280;6027;48.576;9.180;2024-03-02T01:32:20;95739.91;;;5.57;100.00
11936;BME280;6027;48.576;9.180;2024-03-02T01:34:45;95736.09;;;5.60;100.00
11936;BME280;6027;48.576;9.180;2024-03-02T01:37:11;95731.63;;;5.45;100.00
11936;BME280;6027;48.576;9.180;2024-03-02T01:39:36;95729.13;;;5.52;100.00
11936;BME280;6027;48.576;9.180;2024-03-02T01:42:02;95727.03;;;5.47;100.00
11936;BME280;6027;48.576;9.180;2024-03-02T01:44:27;95722.88;;;5.38;100.00
11936;BME280;6027;48.576;9.180;2024-03-02T01:46:52;95727.00;;;5.33;100.00
11936;BME280;6027;48.576;9.180;2024-03-02T01:49:18;95709.34;;;5.27;100.00
11936;BME280;6027;48.576;9.180;2024-03-02T01:51:44;95730.44;;;5.33;100.00
11936;BME280;6027;48.576;9.180;2024-03-02T01:54:09;95721.00;;;5.24;100.00
11936;BME280;6027;48.576;9.180;2024-03-02T01:56:35;95718.97;;;5.34;100.00
11936;BME280;6027;48.576;9.180;2024-03-02T01:59:01;95722.28;;;5.28;100.00
11936;BME280;6027;48.576;9.180;2024-03-02T02:01:26;95722.47;;;5.27;100.00
11936;BME280;6027;48.576;9.180;2024-03-02T02:03:52;95715.75;;;5.24;100.00
11936;BME280;6027;48.576;9.180;2024-03-02T02:06:17;95714.75;;;5.25;100.00
11936;BME280;6027;48.576;9.180;2024-03-02T02:08:43;95714.84;;;5.17;100.00
11936;BME280;6027;48.576;9.180;2024-03-02T02:11:08;95712.22;;;5.17;100.00
11936;BME280;6027;48.576;9.180;2024-03-02T02:13:34;95709.97;;;5.14;100.00
11936;BME280;6027;48.576;9.180;2024-03-02T02:16:07;95719.63;;;5.13;100.00
11936;BME280;6027;48.576;9.180;2024-03-02T02:18:32;95712.56;;;5.14;100.00
11936;BME280;6027;48.576;9.180;2024-03-02T02:20:58;95716.06;;;5.06;100.00
11936;BME280;6027;48.576;9.180;2024-03-02T02:23:23;95716.59;;;5.02;100.00
11936;BME280;6027;48.576;9.180;2024-03-02T02:25:49;95709.03;;;5.07;100.00
11936;BME280;6027;48.576;9.180;2024-03-02T02:28:14;95711.16;;;5.03;100.00
11936;BME280;6027;48.576;9.180;2024-03-02T02:30:39;95713.53;;;4.98;100.00
11936;BME280;6027;48.576;9.180;2024-03-02T02:33:05;95714.41;;;4.91;100.00
11936;BME280;6027;48.576;9.180;2024-03-02T02:35:30;95716.38;;;4.89;100.00
11936;BME280;6027;48.576;9.180;2024-03-02T02:37:56;95712.63;;;4.83;100.00
11936;BME280;6027;48.576;9.180;2024-03-02T02:40:23;95706.22;;;4.85;100.00
11936;BME280;6027;48.576;9.180;2024-03-02T02:42:48;95702.97;;;4.83;100.00
11936;BME280;6027;48.576;9.180;2024-03-02T02:45:14;95691.50;;;4.84;100.00
11936;BME280;6027;48.576;9.180;2024-03-02T02:47:41;95691.56;;;4.76;100.00
11936;BME280;6027;48.576;9.180;2024-03-02T02:50:10;95695.47;;;4.80;100.00
11936;BME280;6027;48.576;9.180;2024-03-02T02:52:38;95679.78;;;4.72;100.00
11936;BME280;6027;48.576;9.180;2024-03-02T02:55:06;95689.75;;;4.77;100.00
11936;BME280;6027;48.576;9.180;2024-03-02T02:57:33;95687.31;;;4.75;100.00
11936;BME280;6027;48.576;9.180;2024-03-02T03:00:08;95680.59;;;4.73;100.00
11936;BME280;6027;48.576;9.180;2024-03-02T03:02:42;95689.00;;;4.68;100.00
11936;BME280;6027;48.576;9.180;2024-03-02T03:05:10;95687.69;;;4.64;100.00
11936;BME280;6027;48.576;9.180;2024-03-02T03:07:36;95680.38;;;4.60;100.00
11936;BME280;6027;48.576;9.180;2024-03-02T03:10:02;95676.16;;;4.50;100.00
11936;BME280;6027;48.576;9.180;2024-03-02T03:12:29;95688.75;;;4.55;100.00
11936;BME280;6027;48.576;9.180;2024-03-02T03:14:55;95691.25;;;4.48;100.00
11936;BME280;6027;48.576;9.180;2024-03-02T03:17:24;95685.09;;;4.41;100.00
11936;BME280;6027;48.576;9.180;2024-03-02T03:19:50;95697.31;;;4.49;100.00
11936;BME280;6027;48.576;9.180;2024-03-02T03:22:16;95699.09;;;4.48;100.00
11936;BME280;6027;48.576;9.180;2024-03-02T03:24:41;95698.47;;;4.46;100.00
11936;BME280;6027;48.576;9.180;2024-03-02T03:27:10;95695.84;;;4.46;100.00
11936;BME280;6027;48.576;9.180;2024-03-02T03:29:37;95696.00;;;4.45;100.00
11936;BME280;6027;48.576;9.180;2024-03-02T03:32:02;95701.91;;;4.47;100.00
11936;BME280;6027;48.576;9.180;2024-03-02T03:34:28;95697.19;;;4.42;100.00
11936;BME280;6027;48.576;9.180;2024-03-02T03:36:54;95692.19;;;4.25;100.00
11936;BME280;6027;48.576;9.180;2024-03-02T03:39:20;95704.44;;;4.32;100.00
11936;BME280;6027;48.576;9.180;2024-03-02T03:41:45;95696.13;;;4.29;100.00
11936;BME280;6027;48.576;9.180;2024-03-02T03:44:10;95700.28;;;4.15;100.00
11936;BME280;6027;48.576;9.180;2024-03-02T03:46:36;95695.53;;;4.19;100.00
11936;BME280;6027;48.576;9.180;2024-03-02T03:49:01;95698.97;;;4.19;100.00
11936;BME280;6027;48.576;9.180;2024-03-02T03:51:27;95687.88;;;4.09;100.00
11936;BME280;6027;48.576;9.180;2024-03-02T03:53:52;95688.50;;;4.11;100.00
11936;BME280;6027;48.576;9.180;2024-03-02T03:56:17;95689.50;;;4.10;100.00
11936;BME280;6027;48.576;9.180;2024-03-02T03:58:43;95689.56;;;4.02;100.00
11936;BME280;6027;48.576;9.180;2024-03-02T04:01:08;95695.44;;;4.04;100.00
11936;BME280;6027;48.576;9.180;2024-03-02T04:03:34;95685.16;;;3.94;100.00
11936;BME280;6027;48.576;9.180;2024-03-02T04:05:59;95696.78;;;3.92;100.00
11936;BME280;6027;48.576;9.180;2024-03-02T04:08:25;95695.31;;;3.89;100.00
11936;BME280;6027;48.576;9.180;2024-03-02T04:10:50;95698.91;;;3.88;100.00
11936;BME280;6027;48.576;9.180;2024-03-02T04:13:16;95697.94;;;3.89;100.00
11936;BME280;6027;48.576;9.180;2024-03-02T04:15:41;95694.97;;;3.92;100.00
11936;BME280;6027;48.576;9.180;2024-03-02T04:18:07;95697.13;;;3.89;100.00
11936;BME280;6027;48.576;9.180;2024-03-02T04:20:32;95700.06;;;3.86;100.00
11936;BME280;6027;48.576;9.180;2024-03-02T04:22:57;95700.28;;;3.84;100.00
11936;BME280;6027;48.576;9.180;2024-03-02T04:25:23;95684.91;;;3.73;100.00
11936;BME280;6027;48.576;9.180;2024-03-02T04:27:48;95692.44;;;3.76;100.00
11936;BME280;6027;48.576;9.180;2024-03-02T04:30:14;95698.97;;;3.80;100.00
11936;BME280;6027;48.576;9.180;2024-03-02T04:32:39;95702.75;;;3.69;100.00
11936;BME280;6027;48.576;9.180;2024-03-02T04:35:05;95705.41;;;3.61;100.00
11936;BME280;6027;48.576;9.180;2024-03-02T04:37:34;95706.56;;;3.59;100.00
11936;BME280;6027;48.576;9.180;2024-03-02T04:39:59;95697.72;;;3.60;100.00
11936;BME280;6027;48.576;9.180;2024-03-02T04:42:25;95693.47;;;3.51;100.00
11936;BME280;6027;48.576;9.180;2024-03-02T04:44:50;95698.88;;;3.57;100.00
11936;BME280;6027;48.576;9.180;2024-03-02T04:47:15;95695.28;;;3.58;100.00
11936;BME280;6027;48.576;9.180;2024-03-02T04:49:41;95698.72;;;3.51;100.00
11936;BME280;6027;48.576;9.180;2024-03-02T04:52:06;95698.88;;;3.57;100.00
11936;BME280;6027;48.576;9.180;2024-03-02T04:54:32;95689.22;;;3.50;100.00
11936;BME280;6027;48.576;9.180;2024-03-02T04:56:57;95697.25;;;3.48;100.00
11936;BME280;6027;48.576;9.180;2024-03-02T04:59:23;95692.66;;;3.50;100.00
11936;BME280;6027;48.576;9.180;2024-03-02T05:01:49;95700.84;;;3.47;100.00
11936;BME280;6027;48.576;9.180;2024-03-02T05:04:14;95693.16;;;3.54;100.00
11936;BME280;6027;48.576;9.180;2024-03-02T05:06:40;95702.63;;;3.46;100.00
11936;BME280;6027;48.576;9.180;2024-03-02T05:09:09;95700.53;;;3.34;100.00
11936;BME280;6027;48.576;9.180;2024-03-02T05:11:35;95705.28;;;3.30;100.00
11936;BME280;6027;48.576;9.180;2024-03-02T05:14:04;95700.88;;;3.31;100.00
11936;BME280;6027;48.576;9.180;2024-03-02T05:16:33;95709.25;;;3.26;100.00
11936;BME280;6027;48.576;9.180;2024-03-02T05:18:58;95709.25;;;3.26;100.00
11936;BME280;6027;48.576;9.180;2024-03-02T05:21:23;95713.78;;;3.32;100.00
11936;BME280;6027;48.576;9.180;2024-03-02T05:23:49;95713.63;;;3.42;100.00
11936;BME280;6027;48.576;9.180;2024-03-02T05:26:14;95716.06;;;3.43;100.00
11936;BME280;6027;48.576;9.180;2024-03-02T05:28:40;95714.94;;;3.46;100.00
11936;BME280;6027;48.576;9.180;2024-03-02T05:31:05;95710.69;;;3.45;100.00
11936;BME280;6027;48.576;9.180;2024-03-02T05:33:31;95709.69;;;3.46;100.00
11936;BME280;6027;48.576;9.180;2024-03-02T05:35:58;95717.53;;;3.46;100.00
11936;BME280;6027;48.576;9.180;2024-03-02T05:38:27;95713.28;;;3.45;100.00
11936;BME280;6027;48.576;9.180;2024-03-02T05:40:52;95714.44;;;3.42;100.00
11936;BME280;6027;48.576;9.180;2024-03-02T05:43:17;95713.47;;;3.43;100.00
11936;BME280;6027;48.576;9.180;2024-03-02T05:45:43;95704.94;;;3.50;100.00
11936;BME280;6027;48.576;9.180;2024-03-02T05:48:09;95708.69;;;3.55;100.00
11936;BME280;6027;48.576;9.180;2024-03-02T05:50:35;95705.25;;;3.55;100.00
11936;BME280;6027;48.576;9.180;2024-03-02T05:53:00;95716.38;;;3.57;100.00
11936;BME280;6027;48.576;9.180;2024-03-02T05:55:26;95708.19;;;3.52;100.00
11936;BME280;6027;48.576;9.180;2024-03-02T05:57:51;95709.69;;;3.38;100.00
11936;BME280;6027;48.576;9.180;2024-03-02T06:00:32;95719.69;;;3.42;100.00
11936;BME280;6027;48.576;9.180;2024-03-02T06:02:58;95720.31;;;3.44;100.00
11936;BME280;6027;48.576;9.180;2024-03-02T06:05:23;95725.19;;;3.47;100.00
11936;BME280;6027;48.576;9.180;2024-03-02T06:07:50;95726.69;;;3.50;100.00
11936;BME280;6027;48.576;9.180;2024-03-02T06:10:16;95724.53;;;3.54;100.00
11936;BME280;6027;48.576;9.180;2024-03-02T06:12:41;95722.59;;;3.56;100.00
11936;BME280;6027;48.576;9.180;2024-03-02T06:15:07;95727.81;;;3.56;100.00
11936;BME280;6027;48.576;9.180;2024-03-02T06:17:35;95731.75;;;3.52;100.00
11936;BME280;6027;48.576;9.180;2024-03-02T06:20:00;95736.31;;;3.58;100.00
11936;BME280;6027;48.576;9.180;2024-03-02T06:22:26;95724.88;;;3.59;100.00
11936;BME280;6027;48.576;9.180;2024-03-02T06:24:51;95730.44;;;3.56;100.00
11936;BME280;6027;48.576;9.180;2024-03-02T06:27:16;95733.69;;;3.58;100.00
11936;BME280;6027;48.576;9.180;2024-03-02T06:29:42;95737.63;;;3.62;100.00
11936;BME280;6027;48.576;9.180;2024-03-02T06:32:07;95736.81;;;3.61;100.00
11936;BME280;6027;48.576;9.180;2024-03-02T06:34:33;95741.22;;;3.61;100.00
11936;BME280;6027;48.576;9.180;2024-03-02T06:36:58;95741.19;;;3.69;100.00
11936;BME280;6027;48.576;9.180;2024-03-02T06:39:24;95741.03;;;3.70;100.00
11936;BME280;6027;48.576;9.180;2024-03-02T06:41:51;95747.56;;;3.83;100.00
11936;BME280;6027;48.576;9.180;2024-03-02T06:44:16;95750.00;;;3.84;100.00
11936;BME280;6027;48.576;9.180;2024-03-02T06:46:44;95760.16;;;3.79;100.00
11936;BME280;6027;48.576;9.180;2024-03-02T06:49:10;95759.19;;;3.72;100.00
11936;BME280;6027;48.576;9.180;2024-03-02T06:51:36;95766.59;;;3.44;100.00
11936;BME280;6027;48.576;9.180;2024-03-02T06:54:02;95762.84;;;3.22;100.00
11936;BME280;6027;48.576;9.180;2024-03-02T06:56:27;95764.47;;;3.39;100.00
11936;BME280;6027;48.576;9.180;2024-03-02T06:58:52;95766.44;;;3.45;100.00
11936;BME280;6027;48.576;9.180;2024-03-02T07:01:18;95754.97;;;3.55;100.00
11936;BME280;6027;48.576;9.180;2024-03-02T07:03:45;95761.50;;;3.59;100.00
11936;BME280;6027;48.576;9.180;2024-03-02T07:06:10;95746.75;;;3.66;100.00
11936;BME280;6027;48.576;9.180;2024-03-02T07:08:39;95742.81;;;3.78;100.00
11936;BME280;6027;48.576;9.180;2024-03-02T07:11:04;95743.78;;;3.77;100.00
11936;BME280;6027;48.576;9.180;2024-03-02T07:13:30;95759.47;;;3.85;100.00
11936;BME280;6027;48.576;9.180;2024-03-02T07:15:55;95757.97;;;3.99;100.00
11936;BME280;6027;48.576;9.180;2024-03-02T07:18:30;95763.00;;;4.08;100.00
11936;BME280;6027;48.576;9.180;2024-03-02T07:20:59;95766.91;;;4.12;100.00
11936;BME280;6027;48.576;9.180;2024-03-02T07:23:26;95750.28;;;3.97;100.00
11936;BME280;6027;48.576;9.180;2024-03-02T07:25:53;95765.59;;;4.16;100.00
11936;BME280;6027;48.576;9.180;2024-03-02T07:28:22;95757.88;;;4.23;100.00
11936;BME280;6027;48.576;9.180;2024-03-02T07:31:06;95762.50;;;4.13;100.00
11936;BME280;6027;48.576;9.180;2024-03-02T07:33:31;95764.94;;;4.14;100.00
11936;BME280;6027;48.576;9.180;2024-03-02T07:35:59;95767.19;;;4.26;100.00
11936;BME280;6027;48.576;9.180;2024-03-02T07:38:26;95759.81;;;4.29;100.00
11936;BME280;6027;48.576;9.180;2024-03-02T07:40:52;95757.34;;;4.36;100.00
11936;BME280;6027;48.576;9.180;2024-03-02T07:43:21;95763.50;;;4.43;100.00
11936;BME280;6027;48.576;9.180;2024-03-02T07:45:47;95761.09;;;4.33;100.00
11936;BME280;6027;48.576;9.180;2024-03-02T07:48:13;95759.06;;;4.43;100.00
11936;BME280;6027;48.576;9.180;2024-03-02T07:50:39;95762.34;;;4.45;100.00
11936;BME280;6027;48.576;9.180;2024-03-02T07:53:05;95756.41;;;4.60;100.00
11936;BME280;6027;48.576;9.180;2024-03-02T07:55:31;95759.78;;;4.68;100.00
11936;BME280;6027;48.576;9.180;2024-03-02T07:57:57;95756.63;;;4.73;100.00
11936;BME280;6027;48.576;9.180;2024-03-02T08:00:23;95750.34;;;4.82;100.00
11936;BME280;6027;48.576;9.180;2024-03-02T08:02:50;95755.38;;;4.92;100.00
11936;BME280;6027;48.576;9.180;2024-03-02T08:05:16;95744.84;;;5.00;100.00
11936;BME280;6027;48.576;9.180;2024-03-02T08:07:43;95742.66;;;5.03;100.00
11936;BME280;6027;48.576;9.180;2024-03-02T08:10:09;95753.44;;;5.08;100.00
11936;BME280;6027;48.576;9.180;2024-03-02T08:12:35;95744.63;;;5.24;100.00
11936;BME280;6027;48.576;9.180;2024-03-02T08:15:00;95744.66;;;5.39;100.00
11936;BME280;6027;48.576;9.180;2024-03-02T08:17:25;95749.00;;;5.32;100.00
11936;BME280;6027;48.576;9.180;2024-03-02T08:19:51;95751.13;;;5.66;100.00
11936;BME280;6027;48.576;9.180;2024-03-02T08:22:17;95742.75;;;6.00;100.00
11936;BME280;6027;48.576;9.180;2024-03-02T08:24:42;95748.38;;;6.26;100.00
11936;BME280;6027;48.576;9.180;2024-03-02T08:27:08;95735.69;;;6.30;100.00
11936;BME280;6027;48.576;9.180;2024-03-02T08:29:34;95737.66;;;6.42;100.00
11936;BME280;6027;48.576;9.180;2024-03-02T08:32:00;95734.81;;;6.58;100.00
11936;BME280;6027;48.576;9.180;2024-03-02T08:34:25;95744.28;;;6.53;100.00
11936;BME280;6027;48.576;9.180;2024-03-02T08:36:51;95733.13;;;6.51;100.00
11936;BME280;6027;48.576;9.180;2024-03-02T08:39:16;95739.78;;;6.68;100.00
11936;BME280;6027;48.576;9.180;2024-03-02T08:41:44;95728.25;;;6.69;100.00
11936;BME280;6027;48.576;9.180;2024-03-02T08:44:10;95732.03;;;6.81;100.00
11936;BME280;6027;48.576;9.180;2024-03-02T08:46:36;95740.81;;;6.88;100.00
11936;BME280;6027;48.576;9.180;2024-03-02T08:49:02;95733.91;;;6.87;100.00
11936;BME280;6027;48.576;9.180;2024-03-02T08:51:27;95740.13;;;7.01;100.00
11936;BME280;6027;48.576;9.180;2024-03-02T08:53:53;95740.13;;;7.22;100.00
11936;BME280;6027;48.576;9.180;2024-03-02T08:56:18;95740.59;;;7.33;100.00
11936;BME280;6027;48.576;9.180;2024-03-02T08:58:45;95738.22;;;7.38;100.00
11936;BME280;6027;48.576;9.180;2024-03-02T09:01:11;95738.84;;;7.40;100.00
11936;BME280;6027;48.576;9.180;2024-03-02T09:03:37;95735.31;;;7.33;100.00
11936;BME280;6027;48.576;9.180;2024-03-02T09:06:03;95738.00;;;7.60;100.00
11936;BME280;6027;48.576;9.180;2024-03-02T09:08:28;95739.06;;;7.66;100.00
11936;BME280;6027;48.576;9.180;2024-03-02T09:10:54;95738.56;;;7.84;100.00
11936;BME280;6027;48.576;9.180;2024-03-02T09:13:20;95740.41;;;7.90;100.00
11936;BME280;6027;48.576;9.180;2024-03-02T09:15:45;95735.63;;;8.00;100.00
11936;BME280;6027;48.576;9.180;2024-03-02T09:18:11;95736.31;;;8.15;100.00
11936;BME280;6027;48.576;9.180;2024-03-02T09:20:36;95735.47;;;8.43;100.00
11936;BME280;6027;48.576;9.180;2024-03-02T09:23:02;95727.44;;;8.29;100.00
11936;BME280;6027;48.576;9.180;2024-03-02T09:25:27;95731.22;;;8.42;100.00
11936;BME280;6027;48.576;9.180;2024-03-02T09:27:53;95727.44;;;8.29;100.00
11936;BME280;6027;48.576;9.180;2024-03-02T09:30:18;95724.78;;;8.57;100.00
11936;BME280;6027;48.576;9.180;2024-03-02T09:32:43;95725.63;;;8.71;100.00
11936;BME280;6027;48.576;9.180;2024-03-02T09:35:09;95726.50;;;8.85;100.00
11936;BME280;6027;48.576;9.180;2024-03-02T09:37:35;95719.41;;;8.98;100.00
11936;BME280;6027;48.576;9.180;2024-03-02T09:40:01;95715.75;;;9.26;100.00
11936;BME280;6027;48.576;9.180;2024-03-02T09:42:26;95720.25;;;9.58;100.00
11936;BME280;6027;48.576;9.180;2024-03-02T09:44:52;95706.41;;;9.76;100.00
11936;BME280;6027;48.576;9.180;2024-03-02T09:47:18;95704.97;;;9.93;100.00
11936;BME280;6027;48.576;9.180;2024-03-02T09:49:43;95704.31;;;10.04;100.00
11936;BME280;6027;48.576;9.180;2024-03-02T09:52:10;95698.59;;;10.21;100.00
11936;BME280;6027;48.576;9.180;2024-03-02T09:54:36;95696.56;;;10.23;100.00
11936;BME280;6027;48.576;9.180;2024-03-02T09:57:04;95697.56;;;10.22;95.97
11936;BME280;6027;48.576;9.180;2024-03-02T09:59:32;95697.56;;;10.35;97.61
11936;BME280;6027;48.576;9.180;2024-03-02T10:02:02;95702.03;;;10.28;96.42
11936;BME280;6027;48.576;9.180;2024-03-02T10:04:29;95695.53;;;10.24;97.01
11936;BME280;6027;48.576;9.180;2024-03-02T10:07:16;95694.84;;;10.48;100.00
11936;BME280;6027;48.576;9.180;2024-03-02T10:09:42;95693.19;;;10.54;100.00
11936;BME280;6027;48.576;9.180;2024-03-02T10:12:09;95689.69;;;10.60;96.68
11936;BME280;6027;48.576;9.180;2024-03-02T10:14:35;95689.66;;;10.66;96.17
11936;BME280;6027;48.576;9.180;2024-03-02T10:17:07;95677.25;;;10.67;100.00
11936;BME280;6027;48.576;9.180;2024-03-02T10:19:34;95694.66;;;10.81;99.99
11936;BME280;6027;48.576;9.180;2024-03-02T10:22:04;95682.63;;;10.85;99.62
11936;BME280;6027;48.576;9.180;2024-03-02T10:24:43;95685.00;;;11.00;99.63
11936;BME280;6027;48.576;9.180;2024-03-02T10:27:22;95679.84;;;11.12;99.73
11936;BME280;6027;48.576;9.180;2024-03-02T10:29:49;95685.66;;;11.20;100.00
11936;BME280;6027;48.576;9.180;2024-03-02T10:32:17;95674.19;;;11.33;99.27
11936;BME280;6027;48.576;9.180;2024-03-02T10:34:44;95677.06;;;11.25;94.49
11936;BME280;6027;48.576;9.180;2024-03-02T10:37:14;95676.44;;;11.29;94.98
11936;BME280;6027;48.576;9.180;2024-03-02T10:39:40;95673.28;;;11.39;93.58
11936;BME280;6027;48.576;9.180;2024-03-02T10:42:06;95676.28;;;11.49;95.66
11936;BME280;6027;48.576;9.180;2024-03-02T10:44:32;95667.00;;;11.58;94.66
11936;BME280;6027;48.576;9.180;2024-03-02T10:47:03;95658.78;;;11.66;92.60
11936;BME280;6027;48.576;9.180;2024-03-02T10:49:33;95660.25;;;11.62;90.27
11936;BME280;6027;48.576;9.180;2024-03-02T10:51:59;95654.31;;;11.67;93.70
11936;BME280;6027;48.576;9.180;2024-03-02T10:54:25;95656.03;;;11.80;90.54
11936;BME280;6027;48.576;9.180;2024-03-02T10:57:01;95643.75;;;11.85;89.00
11936;BME280;6027;48.576;9.180;2024-03-02T10:59:52;95640.34;;;12.15;92.29
11936;BME280;6027;48.576;9.180;2024-03-02T11:02:20;95639.91;;;12.18;85.05
11936;BME280;6027;48.576;9.180;2024-03-02T11:04:49;95635.50;;;12.30;81.91
11936;BME280;6027;48.576;9.180;2024-03-02T11:07:15;95627.13;;;12.44;78.39
11936;BME280;6027;48.576;9.180;2024-03-02T11:09:57;95630.63;;;12.57;81.70
11936;BME280;6027;48.576;9.180;2024-03-02T11:12:39;95633.50;;;12.55;77.20
11936;BME280;6027;48.576;9.180;2024-03-02T11:15:16;95622.59;;;12.63;75.18
11936;BME280;6027;48.576;9.180;2024-03-02T11:17:43;95615.22;;;12.65;75.78
11936;BME280;6027;48.576;9.180;2024-03-02T11:20:09;95618.56;;;12.72;76.37
11936;BME280;6027;48.576;9.180;2024-03-02T11:22:36;95618.50;;;12.91;77.03
11936;BME280;6027;48.576;9.180;2024-03-02T11:25:02;95618.31;;;13.04;75.62
11936;BME280;6027;48.576;9.180;2024-03-02T11:32:55;95616.41;;;13.23;68.41
11936;BME280;6027;48.576;9.180;2024-03-02T11:35:21;95600.69;;;13.33;68.93
11936;BME280;6027;48.576;9.180;2024-03-02T11:37:50;95595.72;;;13.48;66.56
11936;BME280;6027;48.576;9.180;2024-03-02T11:40:21;95584.75;;;13.56;67.97
11936;BME280;6027;48.576;9.180;2024-03-02T11:42:48;95591.91;;;13.67;66.52
11936;BME280;6027;48.576;9.180;2024-03-02T11:45:16;95582.22;;;13.61;70.83
11936;BME280;6027;48.576;9.180;2024-03-02T11:47:50;95579.75;;;13.71;67.04
11936;BME280;6027;48.576;9.180;2024-03-02T11:50:15;95577.44;;;13.75;65.28
11936;BME280;6027;48.576;9.180;2024-03-02T11:52:41;95575.03;;;13.73;65.17
11936;BME280;6027;48.576;9.180;2024-03-02T11:55:08;95569.34;;;13.70;63.62
11936;BME280;6027;48.576;9.180;2024-03-02T11:57:35;95576.28;;;13.71;65.26
11936;BME280;6027;48.576;9.180;2024-03-02T12:00:00;95552.44;;;13.88;68.63
11936;BME280;6027;48.576;9.180;2024-03-02T12:02:28;95569.53;;;14.03;63.83
11936;BME280;6027;48.576;9.180;2024-03-02T12:04:54;95559.03;;;13.97;63.23
11936;BME280;6027;48.576;9.180;2024-03-02T12:07:23;95557.97;;;13.98;64.28
11936;BME280;6027;48.576;9.180;2024-03-02T12:09:59;95550.09;;;14.03;64.40
11936;BME280;6027;48.576;9.180;2024-03-02T12:12:25;95541.91;;;13.93;62.91
11936;BME280;6027;48.576;9.180;2024-03-02T12:14:52;95547.47;;;13.91;64.49
11936;BME280;6027;48.576;9.180;2024-03-02T12:17:18;95541.09;;;13.92;63.74
11936;BME280;6027;48.576;9.180;2024-03-02T12:19:44;95535.25;;;14.07;65.52
11936;BME280;6027;48.576;9.180;2024-03-02T12:22:11;95529.72;;;14.08;60.74
11936;BME280;6027;48.576;9.180;2024-03-02T12:24:36;95531.59;;;14.25;56.19
11936;BME280;6027;48.576;9.180;2024-03-02T12:27:03;95530.34;;;14.27;59.21
11936;BME280;6027;48.576;9.180;2024-03-02T12:29:29;95517.13;;;14.32;59.54
11936;BME280;6027;48.576;9.180;2024-03-02T12:31:55;95518.41;;;14.30;61.43
11936;BME280;6027;48.576;9.180;2024-03-02T12:34:21;95516.03;;;14.45;59.13
11936;BME280;6027;48.576;9.180;2024-03-02T12:36:47;95521.22;;;14.51;56.18
11936;BME280;6027;48.576;9.180;2024-03-02T12:39:16;95515.31;;;14.49;52.31
11936;BME280;6027;48.576;9.180;2024-03-02T12:41:42;95520.00;;;14.42;52.91
11936;BME280;6027;48.576;9.180;2024-03-02T12:44:08;95514.84;;;14.52;53.48
11936;BME280;6027;48.576;9.180;2024-03-02T12:46:33;95511.25;;;14.59;56.96
11936;BME280;6027;48.576;9.180;2024-03-02T12:49:07;95505.25;;;14.68;55.01
11936;BME280;6027;48.576;9.180;2024-03-02T12:51:32;95497.22;;;14.80;60.97
11936;BME280;6027;48.576;9.180;2024-03-02T12:53:58;95494.13;;;14.88;52.41
11936;BME280;6027;48.576;9.180;2024-03-02T12:56:24;95495.91;;;14.99;52.04
11936;BME280;6027;48.576;9.180;2024-03-02T12:58:54;95489.69;;;14.94;52.44
11936;BME280;6027;48.576;9.180;2024-03-02T13:01:19;95496.31;;;14.74;53.28
11936;BME280;6027;48.576;9.180;2024-03-02T13:03:45;95494.38;;;14.70;52.96
11936;BME280;6027;48.576;9.180;2024-03-02T13:06:13;95487.91;;;14.66;52.79
11936;BME280;6027;48.576;9.180;2024-03-02T13:08:38;95481.63;;;14.72;51.80
11936;BME280;6027;48.576;9.180;2024-03-02T13:11:04;95487.19;;;14.70;51.71
11936;BME280;6027;48.576;9.180;2024-03-02T13:13:32;95489.22;;;14.80;51.37
11936;BME280;6027;48.576;9.180;2024-03-02T13:15:58;95483.81;;;14.75;50.46
11936;BME280;6027;48.576;9.180;2024-03-02T13:18:23;95487.19;;;14.87;50.60
11936;BME280;6027;48.576;9.180;2024-03-02T13:20:49;95486.69;;;14.90;51.27